| time (UTC) | temp F | wind direction | speed MPH | gust MPH | rain 1hr in | rain 24hr in | rain mn in | humidity % | barometer mb |
| 20260507223411 | 47 | 330 | 5.0 | 10.0 | 0.00 | 0.07 | 0.07 | 60 | 1006.1 |
| 20260507221911 | 47 | 320 | 5.0 | 13.0 | 0.00 | 0.07 | 0.07 | 61 | 1006.1 |
| 20260507220411 | 47 | 278 | 4.0 | 9.0 | 0.00 | 0.07 | 0.07 | 67 | 1005.9 |
| 20260507214911 | 46 | 283 | 4.0 | 8.0 | 0.00 | 0.07 | 0.07 | 68 | 1005.7 |
| 20260507213411 | 46 | 273 | 7.0 | 11.0 | 0.01 | 0.07 | 0.07 | 68 | 1005.5 |
| 20260507211911 | 47 | 252 | 5.0 | 13.0 | 0.03 | 0.07 | 0.07 | 70 | 1005.5 |
| 20260507210411 | 46 | 274 | 3.0 | 5.0 | 0.03 | 0.07 | 0.07 | 76 | 1005.4 |
| 20260507204911 | 43 | 247 | 2.0 | 5.0 | 0.05 | 0.07 | 0.07 | 80 | 1005.4 |
| 20260507203411 | 43 | 273 | 9.0 | 10.0 | 0.05 | 0.06 | 0.06 | 73 | 1005.6 |
| 20260507201911 | 45 | 273 | 3.0 | 8.0 | 0.03 | 0.04 | 0.04 | 74 | 1005.2 |
| 20260507200411 | 45 | 321 | 3.0 | 13.0 | 0.03 | 0.04 | 0.04 | 73 | 1005.4 |
| 20260507194911 | 46 | 359 | 5.0 | 8.0 | 0.01 | 0.02 | 0.02 | 72 | 1005.3 |
| 20260507193411 | 48 | 325 | 6.0 | 10.0 | 0.00 | 0.01 | 0.01 | 70 | 1005.2 |
| 20260507191911 | 50 | 314 | 6.0 | 14.0 | 0.00 | 0.01 | 0.01 | 57 | 1004.8 |
| 20260507190411 | 49 | 237 | 3.0 | 10.0 | 0.00 | 0.01 | 0.01 | 64 | 1004.6 |
| 20260507184911 | 48 | 237 | 4.0 | 8.0 | 0.00 | 0.01 | 0.01 | 68 | 1004.8 |
| 20260507183411 | 48 | 243 | 2.0 | 5.0 | 0.00 | 0.01 | 0.01 | 71 | 1004.8 |
| 20260507181911 | 48 | 281 | 3.0 | 6.0 | 0.00 | 0.01 | 0.01 | 69 | 1004.8 |
| 20260507180411 | 49 | 358 | 5.0 | 11.0 | 0.00 | 0.01 | 0.01 | 68 | 1004.7 |
| 20260507174911 | 50 | 276 | 7.0 | 22.0 | 0.00 | 0.01 | 0.01 | 60 | 1004.4 |
| 20260507173411 | 50 | 198 | 6.0 | 14.0 | 0.00 | 0.01 | 0.01 | 57 | 1004.2 |
| 20260507171911 | 50 | 244 | 5.0 | 12.0 | 0.00 | 0.01 | 0.01 | 58 | 1004.3 |
| 20260507170411 | 51 | 221 | 5.0 | 11.0 | 0.00 | 0.01 | 0.01 | 56 | 1004.4 |
| 20260507164911 | 52 | 227 | 5.0 | 11.0 | 0.00 | 0.01 | 0.01 | 56 | 1004.5 |
| 20260507163411 | 54 | 195 | 6.0 | 12.0 | 0.00 | 0.01 | 0.01 | 55 | 1004.6 |
| 20260507161911 | 54 | 221 | 5.0 | 15.0 | 0.00 | 0.05 | 0.01 | 53 | 1004.8 |
| 20260507160411 | 52 | 220 | 6.0 | 13.0 | 0.00 | 0.05 | 0.01 | 58 | 1004.9 |
| 20260507154911 | 50 | 272 | 5.0 | 11.0 | 0.00 | 0.05 | 0.01 | 64 | 1005.1 |
| 20260507153411 | 50 | 264 | 6.0 | 14.0 | 0.00 | 0.05 | 0.01 | 61 | 1005.2 |
| 20260507151911 | 51 | 259 | 4.0 | 13.0 | 0.00 | 0.11 | 0.01 | 62 | 1005.3 |
| 20260507150411 | 49 | 225 | 4.0 | 7.0 | 0.00 | 0.11 | 0.01 | 69 | 1005.5 |
| 20260507144911 | 47 | 214 | 4.0 | 11.0 | 0.00 | 0.11 | 0.01 | 72 | 1005.5 |
| 20260507143444 | 45 | 255 | 5.0 | 12.0 | 0.01 | 0.11 | 0.01 | 71 | 1005.6 |
| 20260507143411 | 45 | 255 | 5.0 | 12.0 | 0.01 | 0.11 | 0.01 | 71 | 1005.6 |
| 20260507141911 | 45 | 264 | 5.0 | 14.0 | 0.01 | 0.16 | 0.01 | 68 | 1005.7 |
| 20260507140411 | 44 | 285 | 4.0 | 9.0 | 0.01 | 0.16 | 0.01 | 74 | 1005.7 |
| 20260507134911 | 43 | 285 | 3.0 | 13.0 | 0.01 | 0.16 | 0.01 | 76 | 1005.7 |
| 20260507133411 | 43 | 243 | 5.0 | 11.0 | 0.00 | 0.15 | 0.00 | 77 | 1005.8 |
| 20260507131911 | 44 | 239 | 5.0 | 8.0 | 0.00 | 0.21 | 0.00 | 78 | 1005.8 |
| 20260507130411 | 44 | 197 | 7.0 | 13.0 | 0.00 | 0.21 | 0.00 | 78 | 1005.9 |
| 20260507124911 | 44 | 238 | 7.0 | 17.0 | 0.00 | 0.21 | 0.00 | 81 | 1005.9 |
| 20260507123411 | 44 | 243 | 3.0 | 10.0 | 0.00 | 0.21 | 0.00 | 83 | 1005.9 |
| 20260507121911 | 44 | 236 | 3.0 | 8.0 | 0.00 | 0.25 | 0.00 | 82 | 1005.8 |
| 20260507120411 | 43 | 229 | 3.0 | 5.0 | 0.00 | 0.25 | 0.00 | 83 | 1005.7 |
| 20260507114911 | 43 | 215 | 3.0 | 6.0 | 0.00 | 0.25 | 0.00 | 83 | 1005.7 |
| 20260507113411 | 43 | 222 | 2.0 | 6.0 | 0.00 | 0.25 | 0.00 | 83 | 1005.7 |
| 20260507111911 | 43 | 209 | 1.0 | 5.0 | 0.00 | 0.29 | 0.00 | 84 | 1005.6 |
| 20260507110411 | 42 | 219 | 2.0 | 5.0 | 0.00 | 0.29 | 0.00 | 85 | 1005.7 |
| 20260507104911 | 42 | 217 | 3.0 | 7.0 | 0.00 | 0.29 | 0.00 | 85 | 1005.9 |
| 20260507103411 | 41 | 217 | 2.0 | 6.0 | 0.00 | 0.29 | 0.00 | 85 | 1005.8 |
| 20260507101911 | 41 | 258 | 2.0 | 5.0 | 0.00 | 0.33 | 0.00 | 86 | 1005.8 |
| 20260507100411 | 41 | 224 | 1.0 | 4.0 | 0.00 | 0.33 | 0.00 | 86 | 1005.8 |
| 20260507094911 | 41 | 199 | 2.0 | 6.0 | 0.00 | 0.33 | 0.00 | 85 | 1005.6 |
| 20260507093411 | 41 | 236 | 1.0 | 4.0 | 0.00 | 0.33 | 0.00 | 85 | 1005.7 |
| 20260507091911 | 41 | 233 | 2.0 | 5.0 | 0.00 | 0.35 | 0.00 | 86 | 1005.7 |
| 20260507090411 | 41 | 220 | 1.0 | 4.0 | 0.00 | 0.35 | 0.00 | 86 | 1005.8 |
| 20260507084911 | 41 | 220 | 2.0 | 3.0 | 0.00 | 0.35 | 0.00 | 86 | 1005.8 |
| 20260507083411 | 41 | 203 | 2.0 | 3.0 | 0.00 | 0.35 | 0.00 | 86 | 1005.8 |
| 20260507081911 | 41 | 234 | 1.0 | 3.0 | 0.00 | 0.35 | 0.00 | 86 | 1005.9 |
| 20260507080411 | 41 | 241 | 2.0 | 6.0 | 0.00 | 0.35 | 0.00 | 85 | 1005.9 |
| 20260507074911 | 41 | 243 | 3.0 | 6.0 | 0.00 | 0.35 | 0.00 | 84 | 1005.9 |
| 20260507073411 | 41 | 217 | 2.0 | 4.0 | 0.00 | 0.35 | 0.00 | 84 | 1006.0 |
| 20260507071911 | 41 | 238 | 2.0 | 4.0 | 0.00 | 0.35 | 0.00 | 84 | 1006.0 |
| 20260507070411 | 41 | 236 | 2.0 | 5.0 | 0.00 | 0.35 | 0.00 | 84 | 1005.9 |
| 20260507064911 | 41 | 228 | 2.0 | 3.0 | 0.00 | 0.35 | 0.00 | 83 | 1005.9 |
| 20260507063411 | 41 | 244 | 2.0 | 3.0 | 0.00 | 0.35 | 0.00 | 83 | 1006.0 |
| 20260507061911 | 41 | 240 | 2.0 | 6.0 | 0.00 | 0.35 | 0.00 | 83 | 1006.1 |
| 20260507060411 | 41 | 231 | 2.0 | 6.0 | 0.00 | 0.35 | 0.00 | 84 | 1006.3 |
| 20260507054911 | 41 | 245 | 2.0 | 6.0 | 0.00 | 0.35 | 0.00 | 84 | 1006.4 |
| 20260507053411 | 41 | 268 | 2.0 | 5.0 | 0.00 | 0.35 | 0.00 | 84 | 1006.6 |
| 20260507051911 | 41 | 220 | 2.0 | 7.0 | 0.00 | 0.35 | 0.00 | 86 | 1006.8 |
| 20260507050412 | 40 | 213 | 1.0 | 4.0 | 0.00 | 0.35 | 0.00 | 86 | 1007.0 |
| 20260507044912 | 40 | 220 | 1.0 | 3.0 | 0.00 | 0.35 | 0.00 | 86 | 1007.2 |
| 20260507043412 | 40 | 207 | 2.0 | 4.0 | 0.00 | 0.35 | 0.00 | 86 | 1007.2 |
| 20260507040412 | 39 | 210 | 0.0 | 2.0 | 0.00 | 0.35 | 0.35 | 86 | 1007.5 |
| 20260507034912 | 39 | 193 | 0.0 | 2.0 | 0.00 | 0.35 | 0.35 | 86 | 1007.5 |
| 20260507033412 | 40 | 187 | 0.0 | 0.0 | 0.00 | 0.35 | 0.35 | 86 | 1007.5 |
| 20260507031912 | 40 | 178 | 0.0 | 0.0 | 0.00 | 0.35 | 0.35 | 86 | 1007.7 |
| 20260507030412 | 40 | 217 | 0.0 | 0.0 | 0.00 | 0.35 | 0.35 | 85 | 1007.9 |
| 20260507024912 | 40 | 217 | 0.0 | 0.0 | 0.00 | 0.35 | 0.35 | 84 | 1008.1 |
| 20260507023412 | 41 | 221 | 0.0 | 0.0 | 0.00 | 0.35 | 0.35 | 85 | 1008.2 |
| 20260507021912 | 41 | 216 | 0.0 | 0.0 | 0.00 | 0.35 | 0.35 | 85 | 1008.3 |
| 20260507020412 | 41 | 248 | 0.0 | 0.0 | 0.00 | 0.35 | 0.35 | 85 | 1008.5 |
| 20260507014912 | 41 | 248 | 0.0 | 0.0 | 0.00 | 0.35 | 0.35 | 84 | 1008.4 |
| 20260507013412 | 41 | 248 | 0.0 | 0.0 | 0.00 | 0.35 | 0.35 | 83 | 1008.5 |
| 20260507011912 | 41 | 248 | 0.0 | 0.0 | 0.00 | 0.35 | 0.35 | 83 | 1008.3 |
| 20260507010412 | 41 | 248 | 0.0 | 0.0 | 0.00 | 0.35 | 0.35 | 83 | 1008.3 |
| 20260507004912 | 41 | 248 | 0.0 | 0.0 | 0.00 | 0.35 | 0.35 | 82 | 1008.2 |
| 20260507003412 | 41 | 248 | 0.0 | 0.0 | 0.00 | 0.35 | 0.35 | 81 | 1008.3 |
| 20260507001912 | 42 | 248 | 0.0 | 0.0 | 0.00 | 0.35 | 0.35 | 81 | 1008.2 |
| 20260507000412 | 42 | 248 | 0.0 | 0.0 | 0.00 | 0.35 | 0.35 | 80 | 1008.2 |
| 20260506234912 | 42 | 248 | 0.0 | 0.0 | 0.00 | 0.35 | 0.35 | 78 | 1008.0 |
| 20260506233412 | 43 | 253 | 0.0 | 0.0 | 0.00 | 0.35 | 0.35 | 77 | 1008.0 |
| 20260506231912 | 43 | 240 | 0.0 | 2.0 | 0.00 | 0.35 | 0.35 | 76 | 1008.0 |
| 20260506230412 | 44 | 248 | 1.0 | 2.0 | 0.00 | 0.35 | 0.35 | 75 | 1008.2 |
| 20260506224912 | 44 | 239 | 0.0 | 1.0 | 0.00 | 0.35 | 0.35 | 75 | 1008.1 |